Hamilton, Ontario

5:12 PM EDT on September 28, 2016 (GMT -0400)
Durand | | Change Station

Elev 348 ft 43.25 °N, 79.88 °W | Updated 36 seconds ago

Mostly Cloudy
Mostly Cloudy
70.4 °F
Feels Like 73 °F
N
1.0
Wind Variable Wind from NW
Gusts 10.0 mph

Today
High -- | Low -- °F
--% Chance of Precip.
Yesterday
High -- | Low -- °F
Precip. -- in
Pressure 30.02 in
Visibility 15.0 miles
Clouds Scattered Clouds 5300 ft
Mostly Cloudy 8500 ft
Mostly Cloudy 12000 ft
Mostly Cloudy 25000 ft
Heat Index 73 °F
Dew Point 61 °F
Humidity 73%
Rainfall 0.02 in
Snow Depth Not available.
7:14 AM 7:05 PM
Waning Crescent, 4% visible
METAR CYHM 282100Z 05017KT 15SM VCSH SCT053TCU BKN085 BKN120 BKN250 21/14 A3001 RMK TCU3AC2AC1CI1 AC TR VIRGA ALQDS SLP164 DENSITY ALT 1500FT
Pressure 30.02 in
Visibility 15.0 miles
Clouds Scattered Clouds 5300 ft
Mostly Cloudy 8500 ft
Mostly Cloudy 12000 ft
Mostly Cloudy 25000 ft
Heat Index 73 °F
Dew Point 61 °F
Humidity 73%
Rainfall 0.02 in
Snow Depth Not available.
7:14 AM 7:05 PM
Waning Crescent, 4% visible
METAR CYHM 282100Z 05017KT 15SM VCSH SCT053TCU BKN085 BKN120 BKN250 21/14 A3001 RMK TCU3AC2AC1CI1 AC TR VIRGA ALQDS SLP164 DENSITY ALT 1500FT

10-Day Weather Forecast

Almanac

Astronomy

Sep. 28, 2016 Rise Set
Actual Time
Civil Twilight
Nautical Twilight
Astronomical Twilight
Moon
Length of Visible Light
Length of Day
Tomorrow will be .
, % of the Moon is Illuminated

Today's Extremes

Country Highs Country Lows

Community

WunderPhotos

Upload Photos

1,942,328 photos uploaded!

WunderBlog® & News

Nearby

Air Quality

  Air Quality AQ Index Pollutant
Not available.

Snow Depth

Station Depth Elevation

Earthquake Activity

City Distance Mag. Time & Date
Minimum magnitude displayed is 2.5.

Coastal Water Temperatures

Place Temperature

Stations

Nearby Weather Stations

Station Location Temp. Windchill Dew Point Humidity Wind Precip. Elev Updated Type
                   

Watches & Warnings

There are currently no watches in effect.